sensor_id;sensor_type;location;lat;lon;timestamp;P1;durP1;ratioP1;P2;durP2;ratioP2
75649;SDS011;64245;51.282;22.494;2023-09-12T00:02:23;14.05;;;6.85;;
75649;SDS011;64245;51.282;22.494;2023-09-12T00:04:49;11.70;;;7.20;;
75649;SDS011;64245;51.282;22.494;2023-09-12T00:07:16;15.30;;;8.00;;
75649;SDS011;64245;51.282;22.494;2023-09-12T00:09:41;13.15;;;7.47;;
75649;SDS011;64245;51.282;22.494;2023-09-12T00:12:09;13.88;;;7.00;;
75649;SDS011;64245;51.282;22.494;2023-09-12T00:14:34;14.68;;;7.40;;
75649;SDS011;64245;51.282;22.494;2023-09-12T00:17:03;13.02;;;6.93;;
75649;SDS011;64245;51.282;22.494;2023-09-12T00:19:29;11.98;;;7.38;;
75649;SDS011;64245;51.282;22.494;2023-09-12T00:21:54;13.40;;;7.20;;
75649;SDS011;64245;51.282;22.494;2023-09-12T00:24:20;14.70;;;7.70;;
75649;SDS011;64245;51.282;22.494;2023-09-12T00:26:46;14.55;;;7.13;;
75649;SDS011;64245;51.282;22.494;2023-09-12T00:29:12;12.95;;;7.38;;
75649;SDS011;64245;51.282;22.494;2023-09-12T00:31:37;10.57;;;6.90;;
75649;SDS011;64245;51.282;22.494;2023-09-12T00:34:03;13.98;;;6.93;;
75649;SDS011;64245;51.282;22.494;2023-09-12T00:36:29;12.85;;;7.28;;
75649;SDS011;64245;51.282;22.494;2023-09-12T00:38:55;11.23;;;5.90;;
75649;SDS011;64245;51.282;22.494;2023-09-12T00:41:20;11.68;;;6.60;;
75649;SDS011;64245;51.282;22.494;2023-09-12T00:43:46;12.07;;;6.60;;
75649;SDS011;64245;51.282;22.494;2023-09-12T00:46:13;12.80;;;6.60;;
75649;SDS011;64245;51.282;22.494;2023-09-12T00:48:44;12.75;;;6.97;;
75649;SDS011;64245;51.282;22.494;2023-09-12T00:51:12;13.70;;;7.55;;
75649;SDS011;64245;51.282;22.494;2023-09-12T00:53:39;14.77;;;7.97;;
75649;SDS011;64245;51.282;22.494;2023-09-12T00:56:05;14.35;;;6.82;;
75649;SDS011;64245;51.282;22.494;2023-09-12T00:58:31;12.40;;;6.53;;
75649;SDS011;64245;51.282;22.494;2023-09-12T01:00:58;11.50;;;7.00;;
75649;SDS011;64245;51.282;22.494;2023-09-12T01:03:24;13.80;;;7.22;;
75649;SDS011;64245;51.282;22.494;2023-09-12T01:05:50;11.52;;;6.95;;
75649;SDS011;64245;51.282;22.494;2023-09-12T01:08:16;13.00;;;7.03;;
75649;SDS011;64245;51.282;22.494;2023-09-12T01:10:42;14.75;;;7.13;;
75649;SDS011;64245;51.282;22.494;2023-09-12T01:13:12;12.65;;;6.85;;
75649;SDS011;64245;51.282;22.494;2023-09-12T01:15:39;13.85;;;6.70;;
75649;SDS011;64245;51.282;22.494;2023-09-12T01:18:05;9.40;;;6.05;;
75649;SDS011;64245;51.282;22.494;2023-09-12T01:20:31;12.20;;;6.63;;
75649;SDS011;64245;51.282;22.494;2023-09-12T01:26:17;12.23;;;6.78;;
75649;SDS011;64245;51.282;22.494;2023-09-12T01:28:54;11.05;;;5.63;;
75649;SDS011;64245;51.282;22.494;2023-09-12T01:31:24;11.05;;;6.80;;
75649;SDS011;64245;51.282;22.494;2023-09-12T01:33:55;16.08;;;7.20;;
75649;SDS011;64245;51.282;22.494;2023-09-12T01:36:21;10.82;;;5.80;;
75649;SDS011;64245;51.282;22.494;2023-09-12T01:38:47;12.80;;;6.88;;
75649;SDS011;64245;51.282;22.494;2023-09-12T01:41:13;13.60;;;7.40;;
75649;SDS011;64245;51.282;22.494;2023-09-12T01:43:39;11.90;;;6.25;;
75649;SDS011;64245;51.282;22.494;2023-09-12T01:46:07;12.13;;;6.80;;
75649;SDS011;64245;51.282;22.494;2023-09-12T01:48:33;10.52;;;6.47;;
75649;SDS011;64245;51.282;22.494;2023-09-12T01:51:01;9.57;;;5.57;;
75649;SDS011;64245;51.282;22.494;2023-09-12T01:53:28;10.93;;;5.78;;
75649;SDS011;64245;51.282;22.494;2023-09-12T01:55:56;9.80;;;5.47;;
75649;SDS011;64245;51.282;22.494;2023-09-12T01:58:25;11.40;;;6.07;;
75649;SDS011;64245;51.282;22.494;2023-09-12T02:00:51;10.50;;;5.28;;
75649;SDS011;64245;51.282;22.494;2023-09-12T02:03:16;8.85;;;6.07;;
75649;SDS011;64245;51.282;22.494;2023-09-12T02:05:42;10.95;;;6.20;;
75649;SDS011;64245;51.282;22.494;2023-09-12T02:08:08;11.63;;;5.72;;
75649;SDS011;64245;51.282;22.494;2023-09-12T02:10:33;8.75;;;5.70;;
75649;SDS011;64245;51.282;22.494;2023-09-12T02:12:59;10.18;;;6.38;;
75649;SDS011;64245;51.282;22.494;2023-09-12T02:15:25;11.10;;;5.78;;
75649;SDS011;64245;51.282;22.494;2023-09-12T02:17:51;12.30;;;6.55;;
75649;SDS011;64245;51.282;22.494;2023-09-12T02:20:17;9.90;;;6.72;;
75649;SDS011;64245;51.282;22.494;2023-09-12T02:22:44;13.90;;;6.95;;
75649;SDS011;64245;51.282;22.494;2023-09-12T02:25:10;12.25;;;5.80;;
75649;SDS011;64245;51.282;22.494;2023-09-12T02:27:36;10.48;;;5.85;;
75649;SDS011;64245;51.282;22.494;2023-09-12T02:30:02;10.82;;;6.00;;
75649;SDS011;64245;51.282;22.494;2023-09-12T02:32:28;11.25;;;6.35;;
75649;SDS011;64245;51.282;22.494;2023-09-12T02:34:55;14.65;;;7.47;;
75649;SDS011;64245;51.282;22.494;2023-09-12T02:37:22;13.57;;;7.15;;
75649;SDS011;64245;51.282;22.494;2023-09-12T02:39:48;13.40;;;7.45;;
75649;SDS011;64245;51.282;22.494;2023-09-12T02:42:14;11.35;;;6.72;;
75649;SDS011;64245;51.282;22.494;2023-09-12T02:44:39;11.30;;;6.18;;
75649;SDS011;64245;51.282;22.494;2023-09-12T02:47:05;13.23;;;7.13;;
75649;SDS011;64245;51.282;22.494;2023-09-12T02:49:31;14.82;;;7.57;;
75649;SDS011;64245;51.282;22.494;2023-09-12T02:51:57;12.38;;;6.05;;
75649;SDS011;64245;51.282;22.494;2023-09-12T02:54:22;15.38;;;6.93;;
75649;SDS011;64245;51.282;22.494;2023-09-12T02:56:48;10.77;;;6.20;;
75649;SDS011;64245;51.282;22.494;2023-09-12T02:59:13;12.57;;;6.57;;
75649;SDS011;64245;51.282;22.494;2023-09-12T03:01:39;11.00;;;6.90;;
75649;SDS011;64245;51.282;22.494;2023-09-12T03:04:05;11.05;;;6.07;;
75649;SDS011;64245;51.282;22.494;2023-09-12T03:06:31;12.10;;;6.85;;
75649;SDS011;64245;51.282;22.494;2023-09-12T03:08:56;12.73;;;7.47;;
75649;SDS011;64245;51.282;22.494;2023-09-12T03:11:22;13.05;;;6.03;;
75649;SDS011;64245;51.282;22.494;2023-09-12T03:13:48;11.98;;;6.90;;
75649;SDS011;64245;51.282;22.494;2023-09-12T03:16:14;10.45;;;6.28;;
75649;SDS011;64245;51.282;22.494;2023-09-12T03:18:40;10.32;;;5.70;;
75649;SDS011;64245;51.282;22.494;2023-09-12T03:21:06;13.30;;;7.15;;
75649;SDS011;64245;51.282;22.494;2023-09-12T03:23:32;9.13;;;6.10;;
75649;SDS011;64245;51.282;22.494;2023-09-12T03:26:02;14.35;;;6.90;;
75649;SDS011;64245;51.282;22.494;2023-09-12T03:28:29;13.05;;;6.10;;
75649;SDS011;64245;51.282;22.494;2023-09-12T03:31:06;12.68;;;5.97;;
75649;SDS011;64245;51.282;22.494;2023-09-12T03:33:40;10.82;;;6.53;;
75649;SDS011;64245;51.282;22.494;2023-09-12T03:36:07;12.45;;;6.07;;
75649;SDS011;64245;51.282;22.494;2023-09-12T03:38:33;9.93;;;5.50;;
75649;SDS011;64245;51.282;22.494;2023-09-12T03:40:59;9.23;;;5.88;;
75649;SDS011;64245;51.282;22.494;2023-09-12T03:43:25;10.43;;;6.18;;
75649;SDS011;64245;51.282;22.494;2023-09-12T03:45:51;10.27;;;5.30;;
75649;SDS011;64245;51.282;22.494;2023-09-12T03:48:17;11.10;;;5.85;;
75649;SDS011;64245;51.282;22.494;2023-09-12T03:50:43;10.77;;;6.10;;
75649;SDS011;64245;51.282;22.494;2023-09-12T03:53:10;10.38;;;5.90;;
75649;SDS011;64245;51.282;22.494;2023-09-12T03:55:36;11.70;;;6.05;;
75649;SDS011;64245;51.282;22.494;2023-09-12T03:58:02;9.85;;;6.07;;
75649;SDS011;64245;51.282;22.494;2023-09-12T04:00:29;11.25;;;6.40;;
75649;SDS011;64245;51.282;22.494;2023-09-12T04:02:54;11.57;;;6.22;;
75649;SDS011;64245;51.282;22.494;2023-09-12T04:05:20;10.90;;;5.53;;
75649;SDS011;64245;51.282;22.494;2023-09-12T04:07:46;9.68;;;5.70;;
75649;SDS011;64245;51.282;22.494;2023-09-12T04:10:12;8.02;;;5.60;;
75649;SDS011;64245;51.282;22.494;2023-09-12T04:12:37;11.43;;;6.53;;
75649;SDS011;64245;51.282;22.494;2023-09-12T04:15:03;12.27;;;6.70;;
75649;SDS011;64245;51.282;22.494;2023-09-12T04:17:29;10.95;;;5.57;;
75649;SDS011;64245;51.282;22.494;2023-09-12T04:19:55;11.45;;;6.68;;
75649;SDS011;64245;51.282;22.494;2023-09-12T04:22:20;10.93;;;5.93;;
75649;SDS011;64245;51.282;22.494;2023-09-12T04:24:46;9.32;;;6.03;;
75649;SDS011;64245;51.282;22.494;2023-09-12T04:27:12;12.60;;;7.00;;
75649;SDS011;64245;51.282;22.494;2023-09-12T04:29:38;9.88;;;6.40;;
75649;SDS011;64245;51.282;22.494;2023-09-12T04:32:05;12.50;;;6.35;;
75649;SDS011;64245;51.282;22.494;2023-09-12T04:34:31;9.27;;;6.00;;
75649;SDS011;64245;51.282;22.494;2023-09-12T04:36:57;12.55;;;5.82;;
75649;SDS011;64245;51.282;22.494;2023-09-12T04:39:22;13.80;;;6.72;;
75649;SDS011;64245;51.282;22.494;2023-09-12T04:41:48;10.55;;;5.72;;
75649;SDS011;64245;51.282;22.494;2023-09-12T04:44:14;11.10;;;6.10;;
75649;SDS011;64245;51.282;22.494;2023-09-12T04:46:39;11.05;;;7.03;;
75649;SDS011;64245;51.282;22.494;2023-09-12T04:49:05;11.27;;;5.97;;
75649;SDS011;64245;51.282;22.494;2023-09-12T04:51:31;11.75;;;6.75;;
75649;SDS011;64245;51.282;22.494;2023-09-12T04:53:57;11.27;;;6.25;;
75649;SDS011;64245;51.282;22.494;2023-09-12T04:56:22;11.80;;;6.35;;
75649;SDS011;64245;51.282;22.494;2023-09-12T04:58:51;17.05;;;6.93;;
75649;SDS011;64245;51.282;22.494;2023-09-12T05:01:17;9.60;;;5.63;;
75649;SDS011;64245;51.282;22.494;2023-09-12T05:03:43;8.93;;;5.65;;
75649;SDS011;64245;51.282;22.494;2023-09-12T05:06:09;14.23;;;7.30;;
75649;SDS011;64245;51.282;22.494;2023-09-12T05:08:38;10.93;;;6.18;;
75649;SDS011;64245;51.282;22.494;2023-09-12T05:11:04;12.88;;;6.65;;
75649;SDS011;64245;51.282;22.494;2023-09-12T05:13:30;11.65;;;6.75;;
75649;SDS011;64245;51.282;22.494;2023-09-12T05:15:56;11.07;;;6.28;;
75649;SDS011;64245;51.282;22.494;2023-09-12T05:18:22;11.88;;;7.03;;
75649;SDS011;64245;51.282;22.494;2023-09-12T05:20:48;12.18;;;7.25;;
75649;SDS011;64245;51.282;22.494;2023-09-12T05:23:14;13.45;;;7.75;;
75649;SDS011;64245;51.282;22.494;2023-09-12T05:25:40;9.60;;;6.55;;
75649;SDS011;64245;51.282;22.494;2023-09-12T05:28:05;12.70;;;6.00;;
75649;SDS011;64245;51.282;22.494;2023-09-12T05:30:32;11.18;;;6.90;;
75649;SDS011;64245;51.282;22.494;2023-09-12T05:32:58;12.05;;;6.85;;
75649;SDS011;64245;51.282;22.494;2023-09-12T05:35:24;10.23;;;6.78;;
75649;SDS011;64245;51.282;22.494;2023-09-12T05:37:50;13.35;;;6.47;;
75649;SDS011;64245;51.282;22.494;2023-09-12T05:40:16;12.35;;;7.25;;
75649;SDS011;64245;51.282;22.494;2023-09-12T05:42:43;11.70;;;5.95;;
75649;SDS011;64245;51.282;22.494;2023-09-12T05:45:09;10.95;;;6.18;;
75649;SDS011;64245;51.282;22.494;2023-09-12T05:47:35;11.38;;;6.85;;
75649;SDS011;64245;51.282;22.494;2023-09-12T05:50:00;10.98;;;6.72;;
75649;SDS011;64245;51.282;22.494;2023-09-12T05:52:26;13.30;;;6.90;;
75649;SDS011;64245;51.282;22.494;2023-09-12T05:54:52;13.40;;;6.97;;
75649;SDS011;64245;51.282;22.494;2023-09-12T05:57:17;12.95;;;6.05;;
75649;SDS011;64245;51.282;22.494;2023-09-12T05:59:43;10.50;;;6.22;;
75649;SDS011;64245;51.282;22.494;2023-09-12T06:02:09;9.93;;;6.07;;
75649;SDS011;64245;51.282;22.494;2023-09-12T06:04:35;9.50;;;5.68;;
75649;SDS011;64245;51.282;22.494;2023-09-12T06:07:04;9.23;;;6.18;;
75649;SDS011;64245;51.282;22.494;2023-09-12T06:09:30;9.02;;;5.78;;
75649;SDS011;64245;51.282;22.494;2023-09-12T06:11:56;10.95;;;5.97;;
75649;SDS011;64245;51.282;22.494;2023-09-12T06:14:21;10.55;;;6.25;;
75649;SDS011;64245;51.282;22.494;2023-09-12T06:16:48;13.32;;;6.28;;
75649;SDS011;64245;51.282;22.494;2023-09-12T06:19:13;9.20;;;5.80;;
75649;SDS011;64245;51.282;22.494;2023-09-12T06:21:45;11.07;;;6.53;;
75649;SDS011;64245;51.282;22.494;2023-09-12T06:24:15;10.45;;;5.97;;
75649;SDS011;64245;51.282;22.494;2023-09-12T06:26:42;10.05;;;6.55;;
75649;SDS011;64245;51.282;22.494;2023-09-12T06:29:08;10.52;;;5.68;;
75649;SDS011;64245;51.282;22.494;2023-09-12T06:31:35;10.25;;;6.20;;
75649;SDS011;64245;51.282;22.494;2023-09-12T06:34:01;9.75;;;5.53;;
75649;SDS011;64245;51.282;22.494;2023-09-12T06:36:27;10.48;;;6.13;;
75649;SDS011;64245;51.282;22.494;2023-09-12T06:38:56;9.52;;;6.40;;
75649;SDS011;64245;51.282;22.494;2023-09-12T06:41:23;11.07;;;5.97;;
75649;SDS011;64245;51.282;22.494;2023-09-12T06:43:49;9.38;;;5.65;;
75649;SDS011;64245;51.282;22.494;2023-09-12T06:46:15;10.18;;;7.47;;
75649;SDS011;64245;51.282;22.494;2023-09-12T06:48:43;10.65;;;6.68;;
75649;SDS011;64245;51.282;22.494;2023-09-12T06:51:10;10.38;;;5.70;;
75649;SDS011;64245;51.282;22.494;2023-09-12T06:53:39;9.35;;;6.15;;
75649;SDS011;64245;51.282;22.494;2023-09-12T06:56:05;9.23;;;6.03;;
75649;SDS011;64245;51.282;22.494;2023-09-12T06:58:31;10.23;;;6.45;;
75649;SDS011;64245;51.282;22.494;2023-09-12T07:01:04;12.02;;;6.57;;
75649;SDS011;64245;51.282;22.494;2023-09-12T07:03:32;11.18;;;6.43;;
75649;SDS011;64245;51.282;22.494;2023-09-12T07:06:02;11.45;;;6.32;;
75649;SDS011;64245;51.282;22.494;2023-09-12T07:08:32;12.73;;;7.10;;
75649;SDS011;64245;51.282;22.494;2023-09-12T07:10:58;9.50;;;6.28;;
75649;SDS011;64245;51.282;22.494;2023-09-12T07:13:31;9.52;;;5.82;;
75649;SDS011;64245;51.282;22.494;2023-09-12T07:18:24;10.48;;;5.72;;
75649;SDS011;64245;51.282;22.494;2023-09-12T07:20:56;10.80;;;6.03;;
75649;SDS011;64245;51.282;22.494;2023-09-12T07:23:22;8.45;;;5.50;;
75649;SDS011;64245;51.282;22.494;2023-09-12T07:25:48;9.05;;;6.32;;
75649;SDS011;64245;51.282;22.494;2023-09-12T07:28:14;10.18;;;5.65;;
75649;SDS011;64245;51.282;22.494;2023-09-12T07:30:41;9.65;;;5.90;;
75649;SDS011;64245;51.282;22.494;2023-09-12T07:33:06;11.23;;;6.50;;
75649;SDS011;64245;51.282;22.494;2023-09-12T07:35:32;11.52;;;6.40;;
75649;SDS011;64245;51.282;22.494;2023-09-12T07:37:59;8.90;;;6.03;;
75649;SDS011;64245;51.282;22.494;2023-09-12T07:40:25;9.73;;;5.93;;
75649;SDS011;64245;51.282;22.494;2023-09-12T07:42:50;10.60;;;6.28;;
75649;SDS011;64245;51.282;22.494;2023-09-12T07:45:16;10.07;;;5.85;;
75649;SDS011;64245;51.282;22.494;2023-09-12T07:47:42;9.38;;;6.25;;
75649;SDS011;64245;51.282;22.494;2023-09-12T07:50:08;11.70;;;6.68;;
75649;SDS011;64245;51.282;22.494;2023-09-12T07:52:33;9.93;;;6.40;;
75649;SDS011;64245;51.282;22.494;2023-09-12T07:55:00;9.85;;;5.35;;
75649;SDS011;64245;51.282;22.494;2023-09-12T07:57:26;10.27;;;6.43;;
75649;SDS011;64245;51.282;22.494;2023-09-12T07:59:53;10.20;;;6.60;;
75649;SDS011;64245;51.282;22.494;2023-09-12T08:02:18;10.77;;;5.50;;
75649;SDS011;64245;51.282;22.494;2023-09-12T08:04:44;7.75;;;5.18;;
75649;SDS011;64245;51.282;22.494;2023-09-12T08:07:10;8.98;;;6.05;;
75649;SDS011;64245;51.282;22.494;2023-09-12T08:09:52;11.20;;;6.35;;
75649;SDS011;64245;51.282;22.494;2023-09-12T08:12:25;7.95;;;5.07;;
75649;SDS011;64245;51.282;22.494;2023-09-12T08:14:52;9.70;;;5.45;;
75649;SDS011;64245;51.282;22.494;2023-09-12T08:17:22;10.35;;;5.38;;
75649;SDS011;64245;51.282;22.494;2023-09-12T08:19:48;7.95;;;5.93;;
75649;SDS011;64245;51.282;22.494;2023-09-12T08:22:14;8.55;;;5.75;;
75649;SDS011;64245;51.282;22.494;2023-09-12T08:24:39;11.95;;;5.82;;
75649;SDS011;64245;51.282;22.494;2023-09-12T08:27:06;8.50;;;5.10;;
75649;SDS011;64245;51.282;22.494;2023-09-12T08:29:32;10.05;;;6.35;;
75649;SDS011;64245;51.282;22.494;2023-09-12T08:31:58;7.65;;;5.30;;
75649;SDS011;64245;51.282;22.494;2023-09-12T08:34:25;9.75;;;6.03;;
75649;SDS011;64245;51.282;22.494;2023-09-12T08:36:51;10.75;;;5.78;;
75649;SDS011;64245;51.282;22.494;2023-09-12T08:39:18;9.27;;;5.38;;
75649;SDS011;64245;51.282;22.494;2023-09-12T08:41:49;10.88;;;5.43;;
75649;SDS011;64245;51.282;22.494;2023-09-12T08:44:16;8.70;;;5.80;;
75649;SDS011;64245;51.282;22.494;2023-09-12T08:46:42;9.10;;;5.72;;
75649;SDS011;64245;51.282;22.494;2023-09-12T08:49:08;8.50;;;5.70;;
75649;SDS011;64245;51.282;22.494;2023-09-12T08:51:38;6.95;;;5.18;;
75649;SDS011;64245;51.282;22.494;2023-09-12T08:54:07;9.38;;;5.35;;
75649;SDS011;64245;51.282;22.494;2023-09-12T08:56:35;8.73;;;5.25;;
75649;SDS011;64245;51.282;22.494;2023-09-12T08:59:04;6.97;;;5.25;;
75649;SDS011;64245;51.282;22.494;2023-09-12T09:01:31;8.40;;;5.35;;
75649;SDS011;64245;51.282;22.494;2023-09-12T09:03:58;8.10;;;5.43;;
75649;SDS011;64245;51.282;22.494;2023-09-12T09:06:27;9.52;;;6.07;;
75649;SDS011;64245;51.282;22.494;2023-09-12T09:08:56;8.70;;;5.28;;
75649;SDS011;64245;51.282;22.494;2023-09-12T09:11:22;7.50;;;4.65;;
75649;SDS011;64245;51.282;22.494;2023-09-12T09:13:47;7.68;;;4.35;;
75649;SDS011;64245;51.282;22.494;2023-09-12T09:16:14;8.98;;;5.28;;
75649;SDS011;64245;51.282;22.494;2023-09-12T09:21:29;5.88;;;4.68;;
75649;SDS011;64245;51.282;22.494;2023-09-12T09:23:58;8.02;;;4.85;;
75649;SDS011;64245;51.282;22.494;2023-09-12T09:26:44;6.32;;;4.57;;
75649;SDS011;64245;51.282;22.494;2023-09-12T09:29:15;6.03;;;4.15;;
75649;SDS011;64245;51.282;22.494;2023-09-12T09:31:42;6.13;;;4.30;;
75649;SDS011;64245;51.282;22.494;2023-09-12T09:34:13;7.68;;;4.43;;
75649;SDS011;64245;51.282;22.494;2023-09-12T09:36:52;6.35;;;4.47;;
75649;SDS011;64245;51.282;22.494;2023-09-12T09:39:20;9.90;;;4.80;;
75649;SDS011;64245;51.282;22.494;2023-09-12T09:41:48;6.40;;;4.70;;
75649;SDS011;64245;51.282;22.494;2023-09-12T09:44:14;6.95;;;4.80;;
75649;SDS011;64245;51.282;22.494;2023-09-12T09:46:43;7.07;;;5.10;;
75649;SDS011;64245;51.282;22.494;2023-09-12T09:49:10;6.60;;;4.53;;
75649;SDS011;64245;51.282;22.494;2023-09-12T09:51:43;6.22;;;4.57;;
75649;SDS011;64245;51.282;22.494;2023-09-12T09:54:10;5.82;;;4.28;;
75649;SDS011;64245;51.282;22.494;2023-09-12T09:59:19;7.70;;;4.65;;
75649;SDS011;64245;51.282;22.494;2023-09-12T10:01:46;8.63;;;5.10;;
75649;SDS011;64245;51.282;22.494;2023-09-12T10:04:14;7.15;;;4.13;;
75649;SDS011;64245;51.282;22.494;2023-09-12T10:06:42;7.60;;;4.80;;
75649;SDS011;64245;51.282;22.494;2023-09-12T10:09:10;6.72;;;4.95;;
75649;SDS011;64245;51.282;22.494;2023-09-12T10:11:37;6.72;;;4.50;;
75649;SDS011;64245;51.282;22.494;2023-09-12T10:14:05;8.32;;;4.35;;
75649;SDS011;64245;51.282;22.494;2023-09-12T10:16:32;5.72;;;4.38;;
75649;SDS011;64245;51.282;22.494;2023-09-12T10:21:54;5.82;;;4.43;;
75649;SDS011;64245;51.282;22.494;2023-09-12T10:24:31;5.90;;;3.92;;
75649;SDS011;64245;51.282;22.494;2023-09-12T10:26:58;5.78;;;4.13;;
75649;SDS011;64245;51.282;22.494;2023-09-12T10:29:26;6.13;;;4.47;;
75649;SDS011;64245;51.282;22.494;2023-09-12T10:31:51;6.50;;;4.93;;
75649;SDS011;64245;51.282;22.494;2023-09-12T10:34:17;5.80;;;4.75;;
75649;SDS011;64245;51.282;22.494;2023-09-12T10:39:12;5.68;;;4.13;;
75649;SDS011;64245;51.282;22.494;2023-09-12T10:41:40;5.25;;;3.88;;
75649;SDS011;64245;51.282;22.494;2023-09-12T10:44:07;6.28;;;4.28;;
75649;SDS011;64245;51.282;22.494;2023-09-12T10:46:38;5.85;;;4.35;;
75649;SDS011;64245;51.282;22.494;2023-09-12T10:49:12;4.88;;;4.00;;
75649;SDS011;64245;51.282;22.494;2023-09-12T10:51:40;5.35;;;4.80;;
75649;SDS011;64245;51.282;22.494;2023-09-12T10:54:07;4.95;;;3.75;;
75649;SDS011;64245;51.282;22.494;2023-09-12T10:56:33;5.43;;;4.03;;
75649;SDS011;64245;51.282;22.494;2023-09-12T11:01:38;6.28;;;4.50;;
75649;SDS011;64245;51.282;22.494;2023-09-12T11:06:44;5.78;;;4.32;;
75649;SDS011;64245;51.282;22.494;2023-09-12T11:11:44;8.60;;;4.55;;
75649;SDS011;64245;51.282;22.494;2023-09-12T11:14:14;6.55;;;4.22;;
75649;SDS011;64245;51.282;22.494;2023-09-12T11:16:42;6.95;;;4.65;;
75649;SDS011;64245;51.282;22.494;2023-09-12T11:21:45;6.88;;;4.85;;
75649;SDS011;64245;51.282;22.494;2023-09-12T11:24:18;5.93;;;4.30;;
75649;SDS011;64245;51.282;22.494;2023-09-12T11:27:02;5.13;;;4.03;;
75649;SDS011;64245;51.282;22.494;2023-09-12T11:29:37;5.40;;;4.38;;
75649;SDS011;64245;51.282;22.494;2023-09-12T11:32:04;6.15;;;4.30;;
75649;SDS011;64245;51.282;22.494;2023-09-12T11:34:40;6.53;;;4.75;;
75649;SDS011;64245;51.282;22.494;2023-09-12T11:37:08;6.40;;;4.05;;
75649;SDS011;64245;51.282;22.494;2023-09-12T11:39:37;6.00;;;4.25;;
75649;SDS011;64245;51.282;22.494;2023-09-12T11:42:04;5.20;;;4.10;;
75649;SDS011;64245;51.282;22.494;2023-09-12T11:44:34;7.07;;;4.55;;
75649;SDS011;64245;51.282;22.494;2023-09-12T11:47:00;5.60;;;4.47;;
75649;SDS011;64245;51.282;22.494;2023-09-12T11:49:35;5.28;;;4.00;;
75649;SDS011;64245;51.282;22.494;2023-09-12T11:52:02;5.75;;;4.18;;
75649;SDS011;64245;51.282;22.494;2023-09-12T11:56:57;5.40;;;4.15;;
75649;SDS011;64245;51.282;22.494;2023-09-12T11:59:28;5.82;;;4.90;;
75649;SDS011;64245;51.282;22.494;2023-09-12T12:01:54;5.03;;;4.22;;
75649;SDS011;64245;51.282;22.494;2023-09-12T12:04:24;6.40;;;4.70;;
75649;SDS011;64245;51.282;22.494;2023-09-12T12:06:51;4.80;;;4.30;;
75649;SDS011;64245;51.282;22.494;2023-09-12T12:09:18;6.00;;;4.35;;
75649;SDS011;64245;51.282;22.494;2023-09-12T12:11:48;6.72;;;4.18;;
75649;SDS011;64245;51.282;22.494;2023-09-12T12:14:14;5.68;;;4.35;;
75649;SDS011;64245;51.282;22.494;2023-09-12T12:16:42;5.20;;;4.07;;
75649;SDS011;64245;51.282;22.494;2023-09-12T12:21:37;5.35;;;4.03;;
75649;SDS011;64245;51.282;22.494;2023-09-12T12:24:03;5.05;;;4.53;;
75649;SDS011;64245;51.282;22.494;2023-09-12T12:26:30;5.60;;;4.45;;
75649;SDS011;64245;51.282;22.494;2023-09-12T12:28:56;5.10;;;4.07;;
75649;SDS011;64245;51.282;22.494;2023-09-12T12:31:22;5.40;;;4.15;;
75649;SDS011;64245;51.282;22.494;2023-09-12T12:33:51;5.10;;;4.28;;
75649;SDS011;64245;51.282;22.494;2023-09-12T12:36:18;8.02;;;4.43;;
75649;SDS011;64245;51.282;22.494;2023-09-12T12:38:45;6.57;;;4.60;;
75649;SDS011;64245;51.282;22.494;2023-09-12T12:41:31;4.47;;;3.85;;
75649;SDS011;64245;51.282;22.494;2023-09-12T12:43:57;6.18;;;4.03;;
75649;SDS011;64245;51.282;22.494;2023-09-12T12:46:26;6.30;;;4.45;;
75649;SDS011;64245;51.282;22.494;2023-09-12T12:48:53;5.43;;;3.95;;
75649;SDS011;64245;51.282;22.494;2023-09-12T12:51:22;5.15;;;4.40;;
75649;SDS011;64245;51.282;22.494;2023-09-12T12:53:50;7.07;;;4.47;;
75649;SDS011;64245;51.282;22.494;2023-09-12T12:56:29;5.50;;;3.90;;
75649;SDS011;64245;51.282;22.494;2023-09-12T12:58:56;4.93;;;3.92;;
75649;SDS011;64245;51.282;22.494;2023-09-12T13:01:29;8.25;;;4.30;;
75649;SDS011;64245;51.282;22.494;2023-09-12T13:03:55;5.07;;;3.85;;
75649;SDS011;64245;51.282;22.494;2023-09-12T13:06:22;5.55;;;4.03;;
75649;SDS011;64245;51.282;22.494;2023-09-12T13:08:48;4.85;;;4.28;;
75649;SDS011;64245;51.282;22.494;2023-09-12T13:11:15;7.38;;;4.22;;
75649;SDS011;64245;51.282;22.494;2023-09-12T13:13:42;5.43;;;4.03;;
75649;SDS011;64245;51.282;22.494;2023-09-12T13:16:09;4.78;;;4.10;;
75649;SDS011;64245;51.282;22.494;2023-09-12T13:18:36;5.00;;;3.83;;
75649;SDS011;64245;51.282;22.494;2023-09-12T13:21:02;4.55;;;3.90;;
75649;SDS011;64245;51.282;22.494;2023-09-12T13:23:29;5.50;;;4.18;;
75649;SDS011;64245;51.282;22.494;2023-09-12T13:25:55;5.72;;;4.40;;
75649;SDS011;64245;51.282;22.494;2023-09-12T13:28:22;6.15;;;4.57;;
75649;SDS011;64245;51.282;22.494;2023-09-12T13:30:51;4.35;;;3.63;;
75649;SDS011;64245;51.282;22.494;2023-09-12T13:33:20;4.93;;;4.25;;
75649;SDS011;64245;51.282;22.494;2023-09-12T13:35:49;5.68;;;4.20;;
75649;SDS011;64245;51.282;22.494;2023-09-12T13:38:16;5.32;;;3.88;;
75649;SDS011;64245;51.282;22.494;2023-09-12T13:40:44;5.05;;;4.45;;
75649;SDS011;64245;51.282;22.494;2023-09-12T13:43:11;5.20;;;3.92;;
75649;SDS011;64245;51.282;22.494;2023-09-12T13:45:37;5.18;;;3.83;;
75649;SDS011;64245;51.282;22.494;2023-09-12T13:48:03;4.50;;;3.85;;
75649;SDS011;64245;51.282;22.494;2023-09-12T13:50:30;5.05;;;4.53;;
75649;SDS011;64245;51.282;22.494;2023-09-12T13:53:00;4.72;;;3.92;;
75649;SDS011;64245;51.282;22.494;2023-09-12T13:55:34;4.28;;;3.83;;
75649;SDS011;64245;51.282;22.494;2023-09-12T13:58:01;4.72;;;4.20;;
75649;SDS011;64245;51.282;22.494;2023-09-12T14:00:31;6.15;;;4.20;;
75649;SDS011;64245;51.282;22.494;2023-09-12T14:02:58;4.97;;;4.18;;
75649;SDS011;64245;51.282;22.494;2023-09-12T14:05:24;6.60;;;4.32;;
75649;SDS011;64245;51.282;22.494;2023-09-12T14:07:50;6.40;;;4.18;;
75649;SDS011;64245;51.282;22.494;2023-09-12T14:10:19;4.60;;;3.92;;
75649;SDS011;64245;51.282;22.494;2023-09-12T14:12:45;6.72;;;4.43;;
75649;SDS011;64245;51.282;22.494;2023-09-12T14:15:11;4.57;;;3.72;;
75649;SDS011;64245;51.282;22.494;2023-09-12T14:17:40;4.32;;;3.90;;
75649;SDS011;64245;51.282;22.494;2023-09-12T14:20:06;7.43;;;4.82;;
75649;SDS011;64245;51.282;22.494;2023-09-12T14:24:58;5.88;;;4.05;;
75649;SDS011;64245;51.282;22.494;2023-09-12T14:27:24;5.18;;;4.32;;
75649;SDS011;64245;51.282;22.494;2023-09-12T14:29:50;6.40;;;4.13;;
75649;SDS011;64245;51.282;22.494;2023-09-12T14:32:16;5.70;;;4.43;;
75649;SDS011;64245;51.282;22.494;2023-09-12T14:34:42;5.90;;;3.92;;
75649;SDS011;64245;51.282;22.494;2023-09-12T14:37:07;4.68;;;3.65;;
75649;SDS011;64245;51.282;22.494;2023-09-12T14:39:33;9.82;;;4.45;;
75649;SDS011;64245;51.282;22.494;2023-09-12T14:41:59;6.22;;;4.50;;
75649;SDS011;64245;51.282;22.494;2023-09-12T14:46:53;6.95;;;4.13;;
75649;SDS011;64245;51.282;22.494;2023-09-12T14:49:19;4.63;;;3.60;;
75649;SDS011;64245;51.282;22.494;2023-09-12T14:51:45;6.85;;;4.30;;
75649;SDS011;64245;51.282;22.494;2023-09-12T14:54:11;6.65;;;4.28;;
75649;SDS011;64245;51.282;22.494;2023-09-12T14:56:38;5.45;;;4.57;;
75649;SDS011;64245;51.282;22.494;2023-09-12T14:59:04;6.13;;;4.38;;
75649;SDS011;64245;51.282;22.494;2023-09-12T15:01:35;5.20;;;3.88;;
75649;SDS011;64245;51.282;22.494;2023-09-12T15:04:05;6.97;;;4.43;;
75649;SDS011;64245;51.282;22.494;2023-09-12T15:06:32;5.80;;;4.00;;